Time;durP1;ratioP1;P1;durP2;ratioP2;P2;SDS_P1;SDS_P2;PMS_P1;PMS_P2;Temp;Humidity;BMP_temperature;BMP_pressure;BME280_temperature;BME280_humidity;BME280_pressure;Samples;Min_cycle;Max_cycle;Signal;HPM_P1;HPM_P2
2024/02/23 00:02:23;;;;;;;0.80;0.73;;;;;;;;;;4943485;28;20200;-88
2024/02/23 00:04:51;;;;;;;1.23;0.50;;;;;;;;;;4942777;28;20409;-89
2024/02/23 00:07:17;;;;;;;0.70;0.40;;;7.80;99.90;;;;;;4941233;28;20197;-88
2024/02/23 00:09:43;;;;;;;0.70;0.50;;;8.70;99.90;;;;;;4939913;28;20198;-89
2024/02/23 00:12:08;;;;;;;0.70;0.47;;;8.00;99.90;;;;;;4927410;28;20189;-89
2024/02/23 00:14:40;;;;;;;3.27;0.60;;;8.40;99.90;;;;;;4938943;28;20186;-88
2024/02/23 00:17:05;;;;;;;0.60;0.50;;;7.70;99.90;;;;;;4944807;28;20220;-89
2024/02/23 00:19:32;;;;;;;0.87;0.50;;;8.10;99.90;;;;;;4944786;28;20265;-89
2024/02/23 00:21:59;;;;;;;0.60;0.43;;;9.40;99.90;;;;;;4945054;29;20670;-89
2024/02/23 00:24:25;;;;;;;0.77;0.50;;;8.40;99.90;;;;;;4929159;29;20254;-87
2024/02/23 00:26:51;;;;;;;0.60;0.50;;;9.50;99.90;;;;;;4929328;28;20217;-88
2024/02/23 00:29:17;;;;;;;0.60;0.50;;;;;;;;;;4931334;29;20198;-89
2024/02/23 00:31:45;;;;;;;0.70;0.52;;;7.70;99.90;;;;;;4937929;29;20231;-88
2024/02/23 00:34:16;;;;;;;0.70;0.50;;;8.20;99.90;;;;;;4934242;29;20201;-87
2024/02/23 00:36:44;;;;;;;0.95;0.50;;;6.80;99.90;;;;;;4929818;29;20214;-87
2024/02/23 00:39:10;;;;;;;0.93;0.40;;;8.60;99.90;;;;;;4923877;29;20182;-87
2024/02/23 00:41:36;;;;;;;0.60;0.50;;;7.80;99.90;;;;;;4940296;29;20635;-88
2024/02/23 00:44:03;;;;;;;0.80;0.47;;;8.40;99.90;;;;;;4922701;29;20276;-89
2024/02/23 00:46:32;;;;;;;0.80;0.52;;;8.20;99.90;;;;;;4926828;29;20469;-87
2024/02/23 00:49:00;;;;;;;0.93;0.50;;;9.40;99.90;;;;;;4943064;29;20227;-88
2024/02/23 00:51:25;;;;;;;1.23;0.50;;;7.20;99.90;;;;;;4944597;29;20197;-88
2024/02/23 00:53:51;;;;;;;1.10;0.60;;;;;;;;;;4928176;29;20190;-89
2024/02/23 00:56:17;;;;;;;0.70;0.50;;;7.70;99.90;;;;;;4923040;29;20198;-89
2024/02/23 00:58:43;;;;;;;1.77;0.50;;;;;;;;;;4921040;29;20565;-87
2024/02/23 01:01:09;;;;;;;0.70;0.50;;;7.90;99.90;;;;;;4938352;29;20257;-89
2024/02/23 01:03:50;;;;;;;0.73;0.50;;;;;;;;;;4939838;29;20278;-89
2024/02/23 01:06:17;;;;;;;1.17;0.50;;;7.70;99.90;;;;;;4917348;29;20217;-87
2024/02/23 01:08:43;;;;;;;0.98;0.50;;;7.80;99.90;;;;;;4925778;29;20260;-89
2024/02/23 01:11:16;;;;;;;1.83;0.70;;;;;;;;;;4941539;29;20199;-89
2024/02/23 01:13:42;;;;;;;2.13;0.50;;;7.70;99.90;;;;;;4923732;29;20504;-89
2024/02/23 01:16:08;;;;;;;1.67;0.90;;;;;;;;;;4920966;29;20757;-89
2024/02/23 01:18:36;;;;;;;1.05;0.63;;;7.90;99.90;;;;;;4919229;29;20273;-88
2024/02/23 01:21:02;;;;;;;0.93;0.60;;;8.90;99.90;;;;;;4922083;29;20178;-89
2024/02/23 01:23:30;;;;;;;0.70;0.57;;;7.70;99.90;;;;;;4903877;29;20454;-89
2024/02/23 01:25:58;;;;;;;0.90;0.60;;;9.40;99.90;;;;;;4926419;29;20205;-89
2024/02/23 01:28:26;;;;;;;2.45;0.70;;;9.90;99.90;;;;;;4917016;29;20209;-87
2024/02/23 01:30:52;;;;;;;2.90;0.80;;;7.00;99.90;;;;;;4918006;29;20605;-87
2024/02/23 01:33:21;;;;;;;1.00;0.70;;;;;;;;;;4922898;29;20280;-88
2024/02/23 01:35:46;;;;;;;1.40;0.50;;;7.70;99.90;;;;;;4932067;28;20216;-88
2024/02/23 01:38:18;;;;;;;1.10;0.60;;;9.00;99.90;;;;;;4945969;28;20178;-88
2024/02/23 01:40:45;;;;;;;2.78;0.68;;;7.80;99.90;;;;;;4942105;29;20481;-88
2024/02/23 01:43:14;;;;;;;2.35;0.60;;;8.40;99.90;;;;;;4918731;29;20224;-88
2024/02/23 01:45:39;;;;;;;1.70;0.70;;;8.90;99.90;;;;;;4920533;29;20356;-88
2024/02/23 01:48:06;;;;;;;2.17;0.70;;;8.10;99.90;;;;;;4921866;29;20277;-88
2024/02/23 01:50:32;;;;;;;0.80;0.50;;;8.10;99.90;;;;;;4923436;29;20189;-88
2024/02/23 01:53:03;;;;;;;1.27;0.70;;;6.90;99.90;;;;;;4943734;28;20787;-88
2024/02/23 01:55:30;;;;;;;1.55;0.88;;;7.80;99.90;;;;;;4940571;29;20201;-88
2024/02/23 01:57:59;;;;;;;0.98;0.60;;;9.60;99.90;;;;;;4940338;29;20781;-88
2024/02/23 02:00:25;;;;;;;1.10;0.60;;;9.90;99.90;;;;;;4928283;29;20185;-87
2024/02/23 02:02:51;;;;;;;0.70;0.50;;;;;;;;;;4933829;29;20202;-87
2024/02/23 02:05:16;;;;;;;1.00;0.70;;;8.20;99.90;;;;;;4957131;28;20218;-88
2024/02/23 02:07:47;;;;;;;3.47;0.80;;;8.90;99.90;;;;;;4938598;29;20497;-88
2024/02/23 02:10:13;;;;;;;1.45;0.85;;;7.70;99.90;;;;;;4939094;29;20415;-89
2024/02/23 02:12:40;;;;;;;3.27;0.70;;;7.10;99.90;;;;;;4929214;29;20186;-90
2024/02/23 02:15:07;;;;;;;1.10;1.00;;;9.20;99.90;;;;;;4930214;29;20257;-89
2024/02/23 02:17:34;;;;;;;0.70;0.60;;;8.20;99.90;;;;;;4923442;29;20203;-89
2024/02/23 02:20:06;;;;;;;3.95;0.90;;;9.80;99.90;;;;;;4945584;29;20204;-88
2024/02/23 02:22:33;;;;;;;2.05;0.70;;;7.60;99.90;;;;;;4943207;29;20666;-88
2024/02/23 02:24:59;;;;;;;1.10;0.68;;;7.90;99.90;;;;;;4935409;29;20205;-88
2024/02/23 02:27:24;;;;;;;1.50;0.73;;;8.70;99.90;;;;;;4934406;29;20414;-89
2024/02/23 02:29:52;;;;;;;1.20;0.57;;;6.60;99.90;;;;;;4922096;29;20186;-88
2024/02/23 02:32:18;;;;;;;1.88;1.08;;;;;;;;;;4919797;29;20201;-89
2024/02/23 02:34:44;;;;;;;1.92;1.00;;;7.70;99.90;;;;;;4917747;29;20568;-89
2024/02/23 02:37:09;;;;;;;2.13;0.90;;;8.40;99.90;;;;;;4920543;29;20203;-89
2024/02/23 02:39:36;;;;;;;0.80;0.60;;;9.10;99.90;;;;;;4934876;29;20212;-88
2024/02/23 02:42:02;;;;;;;2.13;0.90;;;9.20;99.90;;;;;;4920319;29;20636;-88
2024/02/23 02:44:30;;;;;;;1.47;0.70;;;7.70;99.90;;;;;;4919540;29;20441;-89
2024/02/23 02:46:59;;;;;;;1.08;0.70;;;10.20;99.90;;;;;;4920832;29;20453;-89
2024/02/23 02:49:25;;;;;;;2.00;0.70;;;7.90;99.90;;;;;;4925502;29;20177;-89
2024/02/23 02:51:50;;;;;;;1.30;0.63;;;8.60;99.90;;;;;;4903840;29;20194;-89
2024/02/23 02:54:20;;;;;;;1.43;0.70;;;8.40;99.90;;;;;;4925709;29;20495;-89
2024/02/23 02:56:47;;;;;;;1.17;0.60;;;9.30;99.90;;;;;;4938435;28;20211;-88
2024/02/23 02:59:13;;;;;;;1.38;0.60;;;7.10;99.90;;;;;;4938749;29;20194;-89
2024/02/23 03:01:39;;;;;;;1.07;0.60;;;7.60;99.90;;;;;;4937122;29;20210;-88
2024/02/23 03:04:05;;;;;;;0.82;0.70;;;7.00;99.90;;;;;;4926998;29;20228;-89
2024/02/23 03:06:31;;;;;;;2.35;0.73;;;7.90;99.90;;;;;;4916064;29;20245;-89
2024/02/23 03:08:59;;;;;;;1.23;0.67;;;;;;;;;;4917359;29;20241;-89
2024/02/23 03:11:29;;;;;;;1.25;0.60;;;7.60;99.90;;;;;;4932163;29;20258;-86
2024/02/23 03:13:55;;;;;;;2.65;0.70;;;9.90;99.90;;;;;;4919342;29;20593;-89
2024/02/23 03:16:23;;;;;;;1.37;0.73;;;;;;;;;;4906357;29;20214;-89
2024/02/23 03:18:56;;;;;;;1.30;0.60;;;7.40;99.90;;;;;;4919397;29;20182;-89
2024/02/23 03:21:24;;;;;;;1.33;0.60;;;7.20;99.90;;;;;;4915957;29;20249;-89
2024/02/23 03:23:49;;;;;;;1.73;0.70;;;6.40;99.90;;;;;;4929669;29;20181;-89
2024/02/23 03:26:21;;;;;;;1.80;0.63;;;7.50;99.90;;;;;;4935622;29;20228;-88
2024/02/23 03:28:48;;;;;;;3.25;0.80;;;;;;;;;;4918189;29;20209;-89
2024/02/23 03:31:14;;;;;;;1.08;0.70;;;7.40;99.90;;;;;;4928863;29;20217;-89
2024/02/23 03:33:40;;;;;;;1.67;0.73;;;8.80;99.90;;;;;;4915402;29;20205;-89
2024/02/23 03:36:09;;;;;;;1.30;0.60;;;7.70;99.90;;;;;;4916696;29;20586;-89
2024/02/23 03:38:35;;;;;;;1.75;0.70;;;8.00;99.90;;;;;;4913900;29;20445;-89
2024/02/23 03:41:01;;;;;;;2.70;0.80;;;10.00;99.90;;;;;;4932638;29;20257;-89
2024/02/23 03:43:31;;;;;;;1.25;0.65;;;9.20;99.90;;;;;;4930094;29;20189;-88
2024/02/23 03:45:56;;;;;;;2.38;0.80;;;7.80;99.90;;;;;;4924596;29;20201;-89
2024/02/23 03:48:25;;;;;;;2.47;0.70;;;7.60;99.90;;;;;;4941525;28;20232;-88
2024/02/23 03:50:54;;;;;;;0.70;0.60;;;8.00;99.90;;;;;;4962501;28;20213;-89
2024/02/23 03:53:19;;;;;;;1.20;0.70;;;9.10;99.90;;;;;;4925929;29;20608;-87
2024/02/23 03:55:46;;;;;;;0.93;0.60;;;8.30;99.90;;;;;;4923293;29;20205;-88
2024/02/23 03:58:12;;;;;;;1.80;0.60;;;7.60;99.90;;;;;;4924265;29;20687;-88
2024/02/23 04:00:38;;;;;;;0.60;0.50;;;8.30;99.90;;;;;;4922355;29;20280;-88
2024/02/23 04:03:03;;;;;;;0.70;0.57;;;8.40;99.90;;;;;;4923674;29;20210;-88
2024/02/23 04:05:31;;;;;;;1.73;1.17;;;;;;;;;;4924443;29;20217;-88
2024/02/23 04:07:56;;;;;;;0.70;0.60;;;7.40;99.90;;;;;;4921791;29;20465;-88
2024/02/23 04:10:22;;;;;;;1.20;0.60;;;;;;;;;;4920617;29;20218;-87
2024/02/23 04:12:48;;;;;;;0.98;0.70;;;7.40;99.90;;;;;;4936671;29;20186;-88
2024/02/23 04:15:14;;;;;;;2.20;0.60;;;;;;;;;;4923874;29;20212;-88
2024/02/23 04:17:40;;;;;;;2.00;0.80;;;;;;;;;;4937523;29;20302;-87
2024/02/23 04:20:19;;;;;;;2.80;0.77;;;7.60;99.90;;;;;;4953616;28;20200;-88
2024/02/23 04:22:48;;;;;;;1.55;0.70;;;7.30;99.90;;;;;;4942978;28;20170;-89
2024/02/23 04:25:14;;;;;;;1.38;0.60;;;7.40;99.90;;;;;;4951439;28;20233;-88
2024/02/23 04:27:40;;;;;;;0.90;0.60;;;7.40;99.90;;;;;;4922497;29;20248;-88
2024/02/23 04:30:07;;;;;;;1.30;0.70;;;8.40;99.90;;;;;;4906260;29;20630;-89
2024/02/23 04:32:33;;;;;;;1.33;0.70;;;7.40;99.90;;;;;;4925293;29;20205;-88
2024/02/23 04:34:58;;;;;;;0.90;0.80;;;7.70;99.90;;;;;;4927623;29;20189;-88
2024/02/23 04:37:24;;;;;;;1.77;0.70;;;;;;;;;;4926519;29;20186;-88
2024/02/23 04:39:50;;;;;;;1.95;0.80;;;7.20;99.90;;;;;;4913004;29;20183;-87
2024/02/23 04:42:16;;;;;;;2.13;1.30;;;8.10;99.90;;;;;;4914484;29;20238;-87
2024/02/23 04:44:42;;;;;;;1.83;0.70;;;7.50;99.90;;;;;;4918993;29;20698;-88
2024/02/23 04:47:08;;;;;;;4.55;0.70;;;8.00;99.90;;;;;;4941453;28;20494;-88
2024/02/23 04:49:34;;;;;;;2.70;0.90;;;7.60;99.90;;;;;;4923702;29;20200;-88
2024/02/23 04:52:01;;;;;;;0.83;0.60;;;8.70;99.90;;;;;;4923893;29;20186;-88
2024/02/23 04:54:30;;;;;;;2.38;0.70;;;7.30;99.90;;;;;;4917494;29;20795;-88
2024/02/23 04:56:58;;;;;;;2.33;0.60;;;6.90;99.90;;;;;;5430806;23;20234;-87
2024/02/23 04:59:32;;;;;;;1.45;0.68;;;5.90;99.90;;;;;;4954290;28;20225;-87
2024/02/23 05:01:58;;;;;;;2.35;0.75;;;8.50;99.90;;;;;;4954007;29;20184;-88
2024/02/23 05:04:26;;;;;;;1.13;0.80;;;7.40;99.90;;;;;;4956395;29;20189;-88
2024/02/23 05:06:52;;;;;;;1.13;0.73;;;6.40;99.90;;;;;;4941744;29;20453;-87
2024/02/23 05:09:18;;;;;;;1.20;0.70;;;8.30;99.90;;;;;;4933765;29;20308;-87
2024/02/23 05:11:45;;;;;;;1.60;0.60;;;9.20;99.90;;;;;;4953241;28;20499;-88
2024/02/23 05:14:11;;;;;;;1.00;0.70;;;8.30;99.90;;;;;;4946694;29;20186;-88
2024/02/23 05:16:37;;;;;;;2.03;0.70;;;;;;;;;;4935443;29;20687;-87
2024/02/23 05:19:03;;;;;;;0.95;0.80;;;7.10;99.90;;;;;;4920756;29;20189;-88
2024/02/23 05:21:28;;;;;;;0.90;0.70;;;7.90;99.90;;;;;;4937884;29;20185;-88
2024/02/23 05:23:56;;;;;;;1.50;0.60;;;8.80;99.90;;;;;;4937763;29;20193;-88
2024/02/23 05:26:22;;;;;;;2.95;1.50;;;6.30;99.90;;;;;;4936678;29;20205;-88
2024/02/23 05:28:48;;;;;;;1.30;0.70;;;;;;;;;;4936025;29;20213;-88
2024/02/23 05:31:13;;;;;;;2.90;2.45;;;7.20;99.90;;;;;;4935576;29;20209;-87
2024/02/23 05:33:39;;;;;;;2.30;0.60;;;;;;;;;;4937963;29;20186;-88
2024/02/23 05:36:08;;;;;;;0.80;0.75;;;6.80;99.90;;;;;;4934477;29;20206;-88
2024/02/23 05:38:33;;;;;;;2.20;0.70;;;7.20;99.90;;;;;;4935722;29;20741;-88
2024/02/23 05:41:01;;;;;;;1.00;0.77;;;7.30;99.90;;;;;;4935120;29;20189;-88
2024/02/23 05:43:26;;;;;;;1.25;0.85;;;8.30;99.90;;;;;;4934568;29;20304;-88
2024/02/23 05:45:54;;;;;;;1.43;0.70;;;;;;;;;;4935577;29;20284;-88
2024/02/23 05:48:22;;;;;;;2.65;1.00;;;6.90;99.90;;;;;;4937595;29;20337;-88
2024/02/23 05:50:48;;;;;;;1.40;0.77;;;7.60;99.90;;;;;;4934989;29;20182;-88
2024/02/23 05:53:14;;;;;;;2.03;0.80;;;;;;;;;;4944521;29;20186;-88
2024/02/23 05:55:42;;;;;;;1.70;1.10;;;6.90;99.90;;;;;;4943018;29;20296;-88
2024/02/23 05:58:08;;;;;;;1.50;1.15;;;7.30;99.90;;;;;;4941929;29;20201;-88
2024/02/23 06:00:34;;;;;;;2.10;1.10;;;7.20;99.90;;;;;;4951837;28;20209;-89
2024/02/23 06:03:00;;;;;;;1.07;0.80;;;;;;;;;;4963489;28;20177;-88
2024/02/23 06:05:29;;;;;;;1.45;0.73;;;6.90;99.90;;;;;;4950268;29;20228;-88
2024/02/23 06:07:55;;;;;;;1.75;0.80;;;7.20;99.90;;;;;;4936644;29;20666;-88
2024/02/23 06:10:21;;;;;;;1.20;1.10;;;5.20;99.90;;;;;;4914635;29;20280;-88
2024/02/23 06:12:46;;;;;;;2.20;0.83;;;;;;;;;;4932454;29;20242;-88
2024/02/23 06:15:12;;;;;;;2.50;1.20;;;6.40;99.90;;;;;;4936096;29;20237;-88
2024/02/23 06:17:40;;;;;;;1.00;0.60;;;;;;;;;;4930576;29;21047;-87
2024/02/23 06:20:07;;;;;;;1.77;1.10;;;6.40;99.90;;;;;;4936655;29;20224;-88
2024/02/23 06:22:34;;;;;;;2.92;0.90;;;6.90;99.90;;;;;;4936762;29;20190;-88
2024/02/23 06:25:02;;;;;;;2.10;0.80;;;6.50;99.90;;;;;;4922129;29;20197;-88
2024/02/23 06:27:28;;;;;;;1.27;1.00;;;8.80;99.90;;;;;;4936280;29;20550;-87
2024/02/23 06:29:57;;;;;;;1.50;0.70;;;8.00;99.90;;;;;;4937236;29;20192;-88
2024/02/23 06:32:23;;;;;;;1.00;0.80;;;6.90;99.90;;;;;;4937124;29;20189;-88
2024/02/23 06:34:48;;;;;;;5.13;1.10;;;6.30;99.90;;;;;;4938377;29;20727;-88
2024/02/23 06:37:19;;;;;;;1.03;0.77;;;6.30;99.90;;;;;;4936650;29;20181;-88
2024/02/23 06:39:49;;;;;;;1.65;1.00;;;6.70;99.90;;;;;;4935703;29;20265;-88
2024/02/23 06:42:19;;;;;;;0.95;0.82;;;7.10;99.90;;;;;;4942374;29;20189;-87
2024/02/23 06:44:45;;;;;;;1.02;0.93;;;6.20;99.90;;;;;;4946064;29;20206;-88
2024/02/23 06:47:12;;;;;;;1.83;0.70;;;8.30;99.90;;;;;;4950517;29;20327;-87
2024/02/23 06:49:44;;;;;;;0.98;0.68;;;6.40;99.90;;;;;;4949262;29;20268;-88
2024/02/23 06:52:10;;;;;;;2.05;1.00;;;6.80;99.90;;;;;;4939946;29;20652;-88
2024/02/23 06:54:39;;;;;;;1.73;0.88;;;8.00;99.90;;;;;;4953589;28;20237;-88
2024/02/23 06:57:04;;;;;;;1.55;1.10;;;7.80;99.90;;;;;;4920991;29;20237;-88
2024/02/23 06:59:32;;;;;;;2.17;1.50;;;6.60;99.90;;;;;;4947766;28;20617;-88
2024/02/23 07:02:08;;;;;;;5.38;1.45;;;6.60;99.90;;;;;;4920187;29;20182;-88
2024/02/23 07:04:37;;;;;;;2.78;1.40;;;8.30;99.90;;;;;;4921674;29;20662;-88
2024/02/23 07:07:08;;;;;;;5.53;2.03;;;6.70;99.90;;;;;;4937481;29;20222;-88
2024/02/23 07:09:47;;;;;;;6.22;1.90;;;6.70;99.90;;;;;;4909543;29;20198;-88
2024/02/23 07:12:54;;;;;;;1.60;1.50;;;6.60;99.90;;;;;;4915033;29;20224;-88
2024/02/23 07:15:39;;;;;;;2.58;1.40;;;6.00;99.90;;;;;;4929077;29;20198;-88
2024/02/23 07:18:54;;;;;;;;;;;;;;;;;;;;;
2024/02/23 07:22:48;;;;;;;5.78;1.50;;;6.40;99.90;;;;;;4912716;29;20226;-89
2024/02/23 07:32:59;;;;;;;1.10;1.00;;;7.10;99.90;;;;;;4947286;28;20217;-89
2024/02/23 07:35:31;;;;;;;4.50;1.53;;;6.80;99.90;;;;;;4939141;29;20209;-88
2024/02/23 07:41:34;;;;;;;5.28;1.65;;;7.20;99.90;;;;;;4909478;29;20196;-89
2024/02/23 07:44:02;;;;;;;3.20;1.00;;;7.30;99.90;;;;;;4938060;29;20254;-89
2024/02/23 07:46:55;;;;;;;1.17;0.90;;;8.60;99.90;;;;;;4914360;29;20281;-89
2024/02/23 07:49:42;;;;;;;1.83;1.08;;;7.90;99.90;;;;;;4919573;29;20209;-89
2024/02/23 07:52:09;;;;;;;1.95;1.10;;;;;;;;;;4919566;29;20249;-88
2024/02/23 07:55:10;;;;;;;1.20;0.90;;;7.40;99.90;;;;;;4923207;29;20194;-88
2024/02/23 07:57:36;;;;;;;2.35;1.60;;;7.90;99.90;;;;;;4923254;29;20193;-89
2024/02/23 08:00:09;;;;;;;1.07;0.70;;;7.50;99.90;;;;;;4917384;29;20318;-89
2024/02/23 08:02:48;;;;;;;1.60;1.10;;;7.70;99.90;;;;;;4917582;29;20212;-88
2024/02/23 08:05:16;;;;;;;2.28;1.20;;;7.50;99.90;;;;;;4915009;29;20304;-88
2024/02/23 08:07:42;;;;;;;3.40;1.00;;;9.90;99.90;;;;;;4899714;29;20214;-88
2024/02/23 08:10:12;;;;;;;1.67;1.10;;;6.70;99.90;;;;;;4914740;29;20195;-89
2024/02/23 08:12:44;;;;;;;1.92;1.20;;;7.70;99.90;;;;;;4914089;29;20253;-88
2024/02/23 08:15:43;;;;;;;2.25;0.90;;;8.00;99.90;;;;;;4933039;29;20248;-89
2024/02/23 08:18:11;;;;;;;1.20;0.77;;;7.20;99.90;;;;;;4920935;29;20205;-88
2024/02/23 08:20:47;;;;;;;3.63;1.00;;;9.20;99.90;;;;;;4902097;29;20218;-87
2024/02/23 08:23:26;;;;;;;1.00;0.80;;;8.00;99.90;;;;;;4931934;29;20569;-88
2024/02/23 08:26:22;;;;;;;1.17;1.08;;;7.70;99.90;;;;;;4925322;29;20224;-88
2024/02/23 08:28:54;;;;;;;1.63;0.75;;;8.90;99.90;;;;;;4922217;29;20240;-89
2024/02/23 08:31:26;;;;;;;1.00;0.85;;;8.20;99.90;;;;;;4945894;29;20276;-89
2024/02/23 08:33:59;;;;;;;3.05;0.80;;;10.90;99.90;;;;;;4938862;29;20198;-89
2024/02/23 08:36:29;;;;;;;2.28;0.98;;;8.90;99.90;;;;;;4945863;28;20225;-87
2024/02/23 08:38:57;;;;;;;2.45;0.90;;;8.30;99.90;;;;;;4917387;29;20199;-88
2024/02/23 08:41:30;;;;;;;2.75;0.82;;;7.80;99.90;;;;;;4925795;29;20918;-89
2024/02/23 08:44:00;;;;;;;2.35;0.90;;;9.30;99.90;;;;;;4910302;29;20674;-87
2024/02/23 08:46:26;;;;;;;1.00;0.70;;;8.50;99.90;;;;;;4921877;29;20209;-88
2024/02/23 08:49:27;;;;;;;;;;;;;;;;;;;;;
2024/02/23 08:52:15;;;;;;;2.85;1.10;;;9.20;99.90;;;;;;4940961;29;20998;-88
2024/02/23 08:54:48;;;;;;;2.22;0.95;;;8.30;99.90;;;;;;4927945;29;20185;-88
2024/02/23 08:57:42;;;;;;;1.92;1.08;;;7.80;99.90;;;;;;4926716;29;20687;-89
2024/02/23 09:00:25;;;;;;;;;;;;;;;;;;;;;
2024/02/23 09:10:08;;;;;;;2.40;1.10;;;8.60;99.90;;;;;;4920142;29;20229;-88
2024/02/23 09:13:20;;;;;;;1.80;1.02;;;8.50;99.90;;;;;;4934477;29;20204;-88
2024/02/23 09:16:52;;;;;;;;;;;;;;;;;;;;;
2024/02/23 09:19:28;;;;;;;1.50;0.82;;;8.60;98.80;;;;;;4866107;29;20208;-88
2024/02/23 09:22:27;;;;;;;;;;;;;;;;;;;;;
2024/02/23 09:28:21;;;;;;;2.20;1.40;;;8.20;99.20;;;;;;5028698;23;20237;-88
2024/02/23 09:32:07;;;;;;;;;;;;;;;;;;;;;
2024/02/23 09:37:30;;;;;;;1.08;0.75;;;8.80;98.30;;;;;;5740174;23;20265;-88
2024/02/23 09:40:04;;;;;;;3.63;1.08;;;10.60;99.10;;;;;;4940047;28;20229;-89
2024/02/23 09:43:17;;;;;;;2.45;1.10;;;8.80;99.40;;;;;;4932748;29;20217;-88
2024/02/23 09:46:09;;;;;;;1.08;0.90;;;11.30;99.00;;;;;;4954291;28;20242;-89
2024/02/23 09:54:46;;;;;;;2.00;0.98;;;12.00;95.60;;;;;;4956657;28;20244;-89
2024/02/23 09:57:25;;;;;;;;;;;;;;;;;;;;;
2024/02/23 10:00:22;;;;;;;2.50;1.00;;;12.60;92.50;;;;;;4940082;29;20248;-89
2024/02/23 10:03:26;;;;;;;2.03;1.55;;;11.60;92.60;;;;;;4929673;29;20207;-88
2024/02/23 10:05:54;;;;;;;;;;;;;;;;;;;;;
2024/02/23 10:09:09;;;;;;;3.33;1.15;;;11.30;90.50;;;;;;4893095;29;20894;-88
2024/02/23 10:13:28;;;;;;;;;;;;;;;;;;;;;
2024/02/23 10:20:50;;;;;;;;;;;;;;;;;;;;;
2024/02/23 10:23:51;;;;;;;;;;;;;;;;;;;;;
2024/02/23 10:26:48;;;;;;;3.75;1.20;;;11.20;91.30;;;;;;4915607;29;20214;-89
2024/02/23 10:30:14;;;;;;;2.08;0.80;;;11.30;92.60;;;;;;4917834;29;20252;-89
2024/02/23 10:32:40;;;;;;;2.83;1.83;;;10.20;91.50;;;;;;4950084;23;20235;-87
2024/02/23 10:35:17;;;;;;;3.15;0.80;;;11.50;91.60;;;;;;4940361;28;20216;-86
2024/02/23 10:37:47;;;;;;;3.25;0.80;;;10.40;90.60;;;;;;4926275;29;20188;-87
2024/02/23 10:40:15;;;;;;;1.30;0.80;;;13.30;92.40;;;;;;4945710;28;20192;-87
2024/02/23 10:42:47;;;;;;;1.42;0.93;;;11.60;91.10;;;;;;4927920;29;20308;-87
2024/02/23 10:45:17;;;;;;;1.20;0.80;;;10.80;91.10;;;;;;4936414;29;20218;-87
2024/02/23 10:47:44;;;;;;;2.80;1.60;;;;;;;;;;4930820;29;20231;-88
2024/02/23 10:50:11;;;;;;;3.83;1.70;;;10.70;89.50;;;;;;4932282;29;20189;-87
2024/02/23 10:52:37;;;;;;;3.90;2.30;;;11.90;90.90;;;;;;4935080;29;20182;-86
2024/02/23 10:55:06;;;;;;;1.00;0.60;;;10.90;88.20;;;;;;4927786;29;20210;-87
2024/02/23 10:57:32;;;;;;;3.15;0.90;;;10.90;89.20;;;;;;4958564;28;20276;-88
2024/02/23 10:59:58;;;;;;;6.03;1.17;;;10.40;88.80;;;;;;4929716;29;20193;-87
2024/02/23 11:02:25;;;;;;;2.65;0.90;;;10.30;88.10;;;;;;4933071;29;20646;-88
2024/02/23 11:04:53;;;;;;;1.52;0.80;;;10.30;88.50;;;;;;4929882;29;20283;-88
2024/02/23 11:07:20;;;;;;;3.80;0.98;;;11.60;89.00;;;;;;4934633;29;20193;-88
2024/02/23 11:09:53;;;;;;;1.70;0.93;;;11.70;90.40;;;;;;4929862;29;20246;-88
2024/02/23 11:12:24;;;;;;;1.92;1.55;;;11.00;87.30;;;;;;4932703;29;20194;-87
2024/02/23 11:14:50;;;;;;;1.77;0.80;;;11.50;87.40;;;;;;4930430;29;20184;-87
2024/02/23 11:17:22;;;;;;;4.07;1.40;;;11.40;87.90;;;;;;4933273;29;20241;-87
2024/02/23 11:19:51;;;;;;;2.60;0.93;;;12.10;86.60;;;;;;4929888;29;20483;-88
2024/02/23 11:22:29;;;;;;;1.05;0.85;;;13.10;87.80;;;;;;4927335;29;20181;-87
2024/02/23 11:25:03;;;;;;;1.52;0.80;;;11.10;86.40;;;;;;4929405;29;20662;-87
2024/02/23 11:27:36;;;;;;;2.88;1.00;;;11.00;86.70;;;;;;4933621;29;20194;-87
2024/02/23 11:30:03;;;;;;;3.15;1.10;;;10.90;88.30;;;;;;4926286;29;20188;-87
2024/02/23 11:32:44;;;;;;;1.20;1.00;;;10.80;89.20;;;;;;4946294;28;20230;-87
2024/02/23 11:35:18;;;;;;;2.05;0.90;;;10.60;87.30;;;;;;4929970;29;20573;-87
2024/02/23 11:37:56;;;;;;;2.40;0.93;;;10.70;88.20;;;;;;4921028;29;20190;-87
2024/02/23 11:40:22;;;;;;;3.63;1.15;;;10.50;88.20;;;;;;4928881;29;20194;-87
2024/02/23 11:42:48;;;;;;;2.13;0.70;;;10.70;89.20;;;;;;4929339;29;20251;-88
2024/02/23 11:45:13;;;;;;;2.20;0.90;;;11.20;89.20;;;;;;4924940;29;20219;-88
2024/02/23 11:47:39;;;;;;;3.23;1.23;;;10.50;87.80;;;;;;4927692;29;20210;-88
2024/02/23 11:50:11;;;;;;;1.67;0.80;;;10.60;88.90;;;;;;4946634;28;20287;-87
2024/02/23 11:52:37;;;;;;;1.85;1.10;;;11.00;89.10;;;;;;4944255;28;20256;-88
2024/02/23 11:55:05;;;;;;;1.35;1.00;;;10.90;88.40;;;;;;4915548;29;20556;-88
2024/02/23 11:57:33;;;;;;;3.92;1.20;;;10.90;88.50;;;;;;4930186;29;20548;-87
2024/02/23 12:00:01;;;;;;;1.75;1.00;;;10.90;88.70;;;;;;4928966;29;20362;-88
2024/02/23 12:02:27;;;;;;;2.28;1.10;;;10.50;88.30;;;;;;4931533;29;20981;-87
2024/02/23 12:04:53;;;;;;;1.33;0.67;;;11.20;86.00;;;;;;4932210;29;20297;-87
2024/02/23 12:07:20;;;;;;;3.63;1.30;;;11.00;86.60;;;;;;4925398;29;20534;-87
2024/02/23 12:09:46;;;;;;;4.18;1.30;;;10.80;85.90;;;;;;4935129;29;20197;-88
2024/02/23 12:12:12;;;;;;;2.70;0.90;;;11.20;86.00;;;;;;4940762;29;20195;-86
2024/02/23 12:14:39;;;;;;;1.60;0.77;;;10.50;85.60;;;;;;4953375;28;20649;-88
2024/02/23 12:17:05;;;;;;;3.65;1.20;;;11.10;87.40;;;;;;4926637;29;20416;-87
2024/02/23 12:19:31;;;;;;;2.22;1.10;;;11.00;87.30;;;;;;4926889;29;20282;-87
2024/02/23 12:22:01;;;;;;;3.43;1.20;;;11.40;87.90;;;;;;4927652;29;20221;-87
2024/02/23 12:24:28;;;;;;;2.88;1.25;;;11.10;86.60;;;;;;4927815;29;20190;-88
2024/02/23 12:26:57;;;;;;;1.88;0.90;;;10.90;88.40;;;;;;4932630;29;20217;-87
2024/02/23 12:29:23;;;;;;;1.73;0.90;;;11.40;86.90;;;;;;4928144;29;20224;-87
2024/02/23 12:31:49;;;;;;;5.60;1.30;;;11.10;87.10;;;;;;4927006;29;20200;-87
2024/02/23 12:34:15;;;;;;;1.25;1.00;;;11.10;87.30;;;;;;4924497;29;20184;-88
2024/02/23 12:36:41;;;;;;;2.05;1.23;;;10.70;87.60;;;;;;4923304;29;20214;-88
2024/02/23 12:39:06;;;;;;;1.60;0.90;;;10.70;86.40;;;;;;4949196;28;20217;-88
2024/02/23 12:41:32;;;;;;;3.23;1.50;;;11.10;86.70;;;;;;4926028;29;20199;-88
2024/02/23 12:43:58;;;;;;;3.80;2.17;;;11.80;87.70;;;;;;4946537;28;20794;-88
2024/02/23 12:46:23;;;;;;;2.70;1.00;;;11.70;87.70;;;;;;4927011;29;21222;-88
2024/02/23 12:48:50;;;;;;;1.80;0.87;;;11.30;86.50;;;;;;4943749;28;20851;-88
2024/02/23 12:51:16;;;;;;;1.42;1.00;;;11.40;85.70;;;;;;4926884;29;20212;-88
2024/02/23 12:53:42;;;;;;;3.95;1.40;;;11.50;87.70;;;;;;4932357;29;20200;-87
2024/02/23 12:56:09;;;;;;;2.75;1.10;;;11.60;87.60;;;;;;4924122;29;20746;-86
2024/02/23 12:58:36;;;;;;;2.10;0.80;;;11.30;87.50;;;;;;4922968;29;20221;-87
2024/02/23 13:01:02;;;;;;;3.78;1.15;;;11.40;88.50;;;;;;4927195;29;20183;-88
2024/02/23 13:03:28;;;;;;;1.55;0.95;;;11.40;90.00;;;;;;4928494;29;20193;-87
2024/02/23 13:05:55;;;;;;;4.90;1.20;;;11.20;89.90;;;;;;4926191;29;20231;-87
2024/02/23 13:08:22;;;;;;;2.75;1.17;;;11.90;90.50;;;;;;4926801;29;20219;-88
2024/02/23 13:10:48;;;;;;;4.10;1.30;;;10.80;90.00;;;;;;4921095;29;20280;-87
2024/02/23 13:13:14;;;;;;;3.37;1.20;;;11.20;90.70;;;;;;4928577;29;20270;-87
2024/02/23 13:15:41;;;;;;;2.50;1.20;;;12.50;91.40;;;;;;4923339;29;20879;-87
2024/02/23 13:18:06;;;;;;;3.55;1.27;;;11.20;90.80;;;;;;4925068;29;20202;-88
2024/02/23 13:20:32;;;;;;;7.30;1.50;;;11.00;90.50;;;;;;4925562;29;20287;-88
2024/02/23 13:22:57;;;;;;;2.20;1.13;;;10.70;90.10;;;;;;4926317;29;20268;-87
2024/02/23 13:25:23;;;;;;;1.73;1.10;;;10.90;90.50;;;;;;4924385;29;20221;-87
2024/02/23 13:27:48;;;;;;;2.90;1.20;;;11.30;90.20;;;;;;4924512;29;20796;-87
2024/02/23 13:30:14;;;;;;;5.73;1.10;;;11.00;90.10;;;;;;4923837;29;20244;-88
2024/02/23 13:32:40;;;;;;;2.40;1.10;;;10.90;90.20;;;;;;4942351;28;20915;-88
2024/02/23 13:35:06;;;;;;;3.73;1.23;;;10.90;90.30;;;;;;4924901;29;20458;-88
2024/02/23 13:37:32;;;;;;;3.05;1.10;;;10.90;90.60;;;;;;4920451;29;20194;-88
2024/02/23 13:39:57;;;;;;;4.20;1.35;;;11.20;91.00;;;;;;4925076;29;20729;-88
2024/02/23 13:42:23;;;;;;;3.10;0.90;;;10.70;90.50;;;;;;4922215;29;20200;-88
2024/02/23 13:44:49;;;;;;;2.27;1.40;;;10.90;90.80;;;;;;4920426;29;20287;-88
2024/02/23 13:47:14;;;;;;;2.97;1.50;;;11.30;91.10;;;;;;4943923;28;20729;-88
2024/02/23 13:49:40;;;;;;;3.07;1.33;;;10.70;91.20;;;;;;4933425;29;20743;-87
2024/02/23 13:52:06;;;;;;;2.10;1.30;;;10.40;90.30;;;;;;4922836;29;20210;-88
2024/02/23 13:54:31;;;;;;;4.80;1.30;;;10.70;90.60;;;;;;4926428;29;20198;-87
2024/02/23 13:56:57;;;;;;;1.13;0.80;;;11.00;91.10;;;;;;4926367;29;20474;-88
2024/02/23 13:59:22;;;;;;;6.40;1.63;;;10.20;91.00;;;;;;4926090;29;20203;-87
2024/02/23 14:01:48;;;;;;;3.60;1.17;;;10.80;91.40;;;;;;4924630;29;20208;-87
2024/02/23 14:04:14;;;;;;;4.13;1.57;;;10.60;91.30;;;;;;4931554;29;20199;-88
2024/02/23 14:06:39;;;;;;;1.73;1.30;;;10.70;91.60;;;;;;4923636;29;20212;-87
2024/02/23 14:09:05;;;;;;;4.30;1.20;;;10.90;91.90;;;;;;4925691;29;20218;-87
2024/02/23 14:11:30;;;;;;;3.37;1.50;;;10.00;91.40;;;;;;4926535;29;20187;-87